Time;durP1;ratioP1;P1;durP2;ratioP2;P2;SDS_P1;SDS_P2;PMS_P1;PMS_P2;Temp;Humidity;BMP_temperature;BMP_pressure;BME280_temperature;BME280_humidity;BME280_pressure;Samples;Min_cycle;Max_cycle;Signal;HPM_P1;HPM_P2
2022/08/25 00:00:21;;;;;;;;;25.00;24.50;;;;;23.58;53.62;99086.59;5075231;28;45680;-66
2022/08/25 00:02:47;;;;;;;;;20.50;19.75;;;;;23.57;53.60;99092.13;5075411;28;45439;-67
2022/08/25 00:05:13;;;;;;;;;18.50;18.50;;;;;23.57;53.51;99092.13;5075340;28;45298;-67
2022/08/25 00:07:38;;;;;;;;;19.00;19.00;;;;;23.57;53.68;99087.59;5074303;28;45388;-67
2022/08/25 00:10:05;;;;;;;;;16.50;16.00;;;;;23.58;53.60;99088.44;5075615;28;46551;-67
2022/08/25 00:12:31;;;;;;;;;17.25;16.75;;;;;23.59;53.83;99093.69;5074488;28;45452;-67
2022/08/25 00:14:56;;;;;;;;;18.50;16.50;;;;;23.61;53.41;99098.91;5075478;28;45278;-67
2022/08/25 00:17:22;;;;;;;;;18.50;17.00;;;;;23.61;53.92;99101.59;5072818;28;45627;-68
2022/08/25 00:19:47;;;;;;;;;18.25;18.25;;;;;23.61;53.36;99099.75;5068063;28;45507;-68
2022/08/25 00:22:13;;;;;;;;;16.75;16.25;;;;;23.62;53.96;99104.16;5074224;28;45424;-68
2022/08/25 00:24:38;;;;;;;;;17.25;15.50;;;;;23.64;53.49;99103.97;5075280;28;45430;-68
2022/08/25 00:27:05;;;;;;;;;17.00;17.00;;;;;23.63;53.47;99092.38;5075319;28;45477;-68
2022/08/25 00:29:31;;;;;;;;;17.00;17.00;;;;;23.63;53.90;99095.06;5075219;28;47312;-68
2022/08/25 00:31:58;;;;;;;;;18.00;17.00;;;;;23.65;53.29;99092.22;5075031;28;45302;-68
2022/08/25 00:34:29;;;;;;;;;18.25;17.25;;;;;23.65;53.32;99085.00;5074467;28;45355;-68
2022/08/25 00:36:54;;;;;;;;;22.25;18.50;;;;;23.65;53.25;99085.00;5072204;28;45545;-68
2022/08/25 00:39:22;;;;;;;;;17.50;16.50;;;;;23.67;53.71;99083.00;5074789;28;45391;-71
2022/08/25 00:41:49;;;;;;;;;16.00;16.00;;;;;23.66;53.46;99080.47;5074875;28;45317;-71
2022/08/25 00:44:18;;;;;;;;;17.50;16.50;;;;;23.68;53.56;99081.16;5052976;28;45470;-71
2022/08/25 00:46:53;;;;;;;;;16.25;15.25;;;;;23.66;53.79;99081.31;5070514;28;45334;-72
2022/08/25 00:49:30;;;;;;;;;16.75;16.75;;;;;23.65;53.52;99090.38;5074467;28;46348;-72
2022/08/25 00:52:09;;;;;;;;;15.50;14.75;;;;;23.63;53.40;99086.97;5074558;28;45431;-72
2022/08/25 00:54:43;;;;;;;;;18.50;16.25;;;;;23.63;53.85;99089.69;5074813;28;45412;-71
2022/08/25 00:57:11;;;;;;;;;14.75;14.00;;;;;23.63;53.75;99084.28;5074656;28;45349;-72
2022/08/25 00:59:37;;;;;;;;;16.00;16.00;;;;;23.59;54.05;99082.06;5074336;28;45912;-71
2022/08/25 01:02:06;;;;;;;;;17.00;14.75;;;;;23.56;54.08;99082.34;5075200;28;45443;-71
2022/08/25 01:04:32;;;;;;;;;18.50;17.75;;;;;23.54;54.59;99081.63;5074006;28;45456;-71
2022/08/25 01:06:59;;;;;;;;;16.25;16.25;;;;;23.51;54.30;99074.69;5056332;28;45460;-71
2022/08/25 01:09:25;;;;;;;;;19.50;16.25;;;;;23.50;54.74;99080.19;5073389;28;45596;-68
2022/08/25 01:11:51;;;;;;;;;18.50;16.50;;;;;23.47;54.52;99081.31;5074464;28;45441;-69
2022/08/25 01:14:20;;;;;;;;;18.00;17.25;;;;;23.45;54.52;99088.72;5070083;28;45495;-65
2022/08/25 01:16:46;;;;;;;;;15.75;14.50;;;;;23.44;54.13;99096.94;5074678;28;45479;-65
2022/08/25 01:19:13;;;;;;;;;16.50;16.50;;;;;23.44;54.63;99099.63;5072557;28;46338;-65
2022/08/25 01:21:45;;;;;;;;;15.75;15.75;;;;;23.40;54.28;99098.19;5072855;28;45335;-69
2022/08/25 01:24:34;;;;;;;;;18.75;17.75;;;;;23.39;54.10;99097.34;5073532;28;45519;-73
2022/08/25 01:27:00;;;;;;;;;17.25;17.00;;;;;23.39;54.17;99105.41;5066823;28;45359;-68
2022/08/25 01:29:26;;;;;;;;;16.25;14.25;;;;;23.38;54.24;99092.94;5073406;28;45610;-68
2022/08/25 01:31:56;;;;;;;;;17.50;17.50;;;;;23.38;54.11;99086.72;5075691;28;45421;-68
2022/08/25 01:34:24;;;;;;;;;16.75;16.00;;;;;23.39;54.37;99107.25;5077845;28;45361;-66
2022/08/25 01:36:49;;;;;;;;;15.50;15.50;;;;;23.38;54.11;99102.88;5077425;28;45520;-66
2022/08/25 01:39:15;;;;;;;;;15.50;14.00;;;;;23.38;53.76;99089.41;5077813;28;46405;-66
2022/08/25 01:41:58;;;;;;;;;17.25;17.00;;;;;23.37;54.37;99091.25;5077850;28;45619;-66
2022/08/25 01:44:24;;;;;;;;;17.00;17.00;;;;;23.36;54.24;99102.16;5077342;28;45465;-70
2022/08/25 01:46:51;;;;;;;;;16.25;14.75;;;;;23.35;54.27;99111.22;5077699;28;45348;-70
2022/08/25 01:49:16;;;;;;;;;20.50;18.75;;;;;23.33;54.01;99114.91;5076939;28;46143;-68
2022/08/25 01:51:46;;;;;;;;;19.50;17.25;;;;;23.32;54.80;99110.50;5077685;28;45487;-68
2022/08/25 01:54:11;;;;;;;;;16.25;16.25;;;;;23.29;55.10;99109.97;5076561;28;45475;-68
2022/08/25 01:56:37;;;;;;;;;17.00;17.00;;;;;23.25;54.89;99114.78;5075931;28;45301;-68
2022/08/25 01:59:03;;;;;;;;;16.00;15.00;;;;;23.23;54.34;99118.59;5048481;28;46414;-67
2022/08/25 02:01:29;;;;;;;;;18.00;18.00;;;;;23.15;54.64;99115.75;5075994;27;45386;-68
2022/08/25 02:03:55;;;;;;;;;17.50;16.75;;;;;;;;5051873;28;45488;-69
2022/08/25 02:06:25;;;;;;;;;15.50;13.25;;;;;23.07;54.68;99108.41;5076411;28;45365;-67
2022/08/25 02:08:53;;;;;;;;;15.00;14.00;;;;;23.04;54.68;99110.50;5076591;28;45338;-68
2022/08/25 02:11:20;;;;;;;;;19.00;18.00;;;;;22.99;54.38;99110.91;5077273;28;45401;-70
2022/08/25 02:13:45;;;;;;;;;18.50;14.25;;;;;22.93;54.56;99114.19;5077433;28;45461;-68
2022/08/25 02:16:19;;;;;;;;;15.75;15.25;;;;;22.88;55.15;99116.44;5076850;28;45341;-69
2022/08/25 02:18:46;;;;;;;;;19.50;19.00;;;;;22.83;54.92;99110.63;5077107;28;45453;-68
2022/08/25 02:21:12;;;;;;;;;16.25;14.75;;;;;22.80;55.07;99108.19;5077376;28;45397;-69
2022/08/25 02:23:38;;;;;;;;;16.25;15.25;;;;;22.79;55.16;99115.41;5076518;28;45416;-68
2022/08/25 02:26:04;;;;;;;;;16.00;14.25;;;;;22.79;54.97;99112.72;5077049;28;45691;-69
2022/08/25 02:28:29;;;;;;;;;16.50;16.50;;;;;22.79;55.34;99106.53;5076852;28;45439;-69
2022/08/25 02:30:55;;;;;;;;;11.00;10.25;;;;;22.77;55.15;99106.66;5077107;28;45377;-69
2022/08/25 02:33:21;;;;;;;;;18.00;18.00;;;;;22.77;55.41;99106.66;5076749;28;45563;-68
2022/08/25 02:35:46;;;;;;;;;24.25;24.00;;;;;22.74;55.80;99106.91;5076813;28;45373;-69
2022/08/25 02:38:12;;;;;;;;;15.00;15.00;;;;;22.72;55.51;99116.94;5058080;28;46473;-68
2022/08/25 02:40:37;;;;;;;;;19.00;16.75;;;;;22.69;56.22;99114.53;5076942;28;45370;-68
2022/08/25 02:43:04;;;;;;;;;15.25;15.25;;;;;22.68;55.89;99102.06;5075234;28;45232;-68
2022/08/25 02:45:30;;;;;;;;;14.25;13.25;;;;;22.67;56.18;99105.75;5076310;28;45385;-68
2022/08/25 02:47:56;;;;;;;;;16.25;15.25;;;;;22.64;56.62;99100.66;5076194;28;46207;-68
2022/08/25 02:50:22;;;;;;;;;16.50;15.25;;;;;22.63;56.21;99107.00;5076938;28;45428;-68
2022/08/25 02:52:49;;;;;;;;;14.25;14.00;;;;;22.60;56.98;99105.47;5076172;28;45424;-68
2022/08/25 02:55:16;;;;;;;;;21.00;17.00;;;;;22.59;57.07;99090.34;5075381;28;45635;-69
2022/08/25 02:57:42;;;;;;;;;17.00;16.00;;;;;22.59;56.73;99092.16;5076554;28;45432;-68
2022/08/25 03:00:10;;;;;;;;;15.00;15.00;;;;;22.57;56.77;99094.13;5076642;28;45467;-68
2022/08/25 03:02:36;;;;;;;;;14.25;14.25;;;;;22.54;56.64;99095.25;5076702;28;45357;-68
2022/08/25 03:05:01;;;;;;;;;16.75;16.75;;;;;22.53;56.20;99101.63;5076578;28;45560;-68
2022/08/25 03:07:27;;;;;;;;;17.50;17.25;;;;;22.52;56.22;99097.22;5075634;28;46342;-68
2022/08/25 03:09:52;;;;;;;;;17.00;17.00;;;;;22.51;57.04;99092.00;5057754;28;45687;-69
2022/08/25 03:12:17;;;;;;;;;20.50;19.00;;;;;22.50;57.14;99090.28;5076140;28;45803;-69
2022/08/25 03:14:43;;;;;;;;;19.25;19.00;;;;;22.48;57.02;99095.81;5075260;28;45440;-67
2022/08/25 03:17:08;;;;;;;;;21.50;20.00;;;;;22.48;57.22;99093.13;5076674;28;46200;-67
2022/08/25 03:19:34;;;;;;;;;19.00;18.75;;;;;22.47;57.25;99094.09;5076002;28;45401;-66
2022/08/25 03:22:00;;;;;;;;;16.50;15.75;;;;;22.45;56.79;99095.25;5075379;28;45477;-68
2022/08/25 03:24:26;;;;;;;;;17.50;16.00;;;;;22.42;57.26;99099.06;5076327;28;45565;-68
2022/08/25 03:26:53;;;;;;;;;20.25;17.50;;;;;22.40;57.01;99092.97;5075967;28;46544;-69
2022/08/25 03:29:20;;;;;;;;;20.25;19.50;;;;;22.39;57.01;99093.09;5075328;28;45391;-69
2022/08/25 03:31:45;;;;;;;;;16.50;16.25;;;;;22.36;57.55;99093.38;5075925;28;45491;-58
2022/08/25 03:34:12;;;;;;;;;18.75;17.50;;;;;22.33;57.59;99089.09;5074358;28;45488;-56
2022/08/25 03:36:38;;;;;;;;;14.75;14.75;;;;;22.31;57.25;99091.06;5075197;28;46283;-56
2022/08/25 03:39:04;;;;;;;;;26.33;26.33;;;;;22.29;57.84;99087.69;5074494;28;45350;-55
2022/08/25 03:41:31;;;;;;;;;21.00;19.75;;;;;22.28;57.83;99083.31;5075669;28;45491;-57
2022/08/25 03:43:58;;;;;;;;;16.00;16.00;;;;;22.25;57.24;99075.53;5074123;28;45733;-56
2022/08/25 03:46:27;;;;;;;;;17.25;16.00;;;;;22.23;57.26;99086.41;5074114;28;46476;-56
2022/08/25 03:48:54;;;;;;;;;17.00;17.00;;;;;22.25;57.37;99091.66;5068952;28;45507;-56
2022/08/25 03:51:25;;;;;;;;;16.50;16.50;;;;;22.25;57.43;99091.66;5075822;28;45483;-56
2022/08/25 03:53:51;;;;;;;;;20.25;19.25;;;;;22.23;57.95;99091.78;5073831;28;45713;-57
2022/08/25 03:56:17;;;;;;;;;21.00;20.00;;;;;22.23;58.13;99089.09;5074520;28;45770;-56
2022/08/25 03:58:42;;;;;;;;;18.00;18.00;;;;;22.23;57.72;99093.59;5074680;28;45550;-57
2022/08/25 04:01:08;;;;;;;;;19.25;18.75;;;;;22.21;57.91;99092.91;5075032;28;45389;-56
2022/08/25 04:03:34;;;;;;;;;21.25;19.50;;;;;22.17;57.79;99096.81;5074725;28;45574;-57
2022/08/25 04:06:01;;;;;;;;;18.75;18.25;;;;;22.18;58.00;99094.00;5074956;28;46190;-56
2022/08/25 04:08:26;;;;;;;;;23.50;20.50;;;;;22.17;57.56;99088.78;5072385;28;45387;-57
2022/08/25 04:10:53;;;;;;;;;21.50;18.00;;;;;22.16;57.96;99089.75;5075409;28;45327;-57
2022/08/25 04:13:18;;;;;;;;;17.25;17.25;;;;;22.16;57.64;99093.28;5074350;28;45503;-56
2022/08/25 04:15:44;;;;;;;;;17.25;17.25;;;;;22.12;57.92;99091.84;5074808;28;46283;-56
2022/08/25 04:18:12;;;;;;;;;15.00;15.00;;;;;22.11;57.76;99086.66;5074175;28;45318;-57
2022/08/25 04:20:39;;;;;;;;;16.25;14.00;;;;;22.09;57.91;99086.78;5075169;28;45499;-57
2022/08/25 04:23:04;;;;;;;;;19.75;18.25;;;;;22.08;57.78;99087.75;5073960;28;45536;-56
2022/08/25 04:25:30;;;;;;;;;18.00;17.00;;;;;22.07;57.73;99090.56;5074871;28;46023;-56
2022/08/25 04:27:56;;;;;;;;;15.75;15.75;;;;;22.06;57.93;99092.41;5074900;28;45436;-56
2022/08/25 04:30:22;;;;;;;;;19.25;17.00;;;;;22.05;57.96;99093.41;5074848;28;45428;-57
2022/08/25 04:32:48;;;;;;;;;16.75;16.25;;;;;22.04;58.03;99089.00;5074546;28;45349;-57
2022/08/25 04:35:14;;;;;;;;;18.00;17.50;;;;;22.04;58.46;99091.69;5074596;28;45613;-57
2022/08/25 04:37:40;;;;;;;;;21.25;19.25;;;;;22.03;58.30;99092.69;5074342;28;45297;-57
2022/08/25 04:40:06;;;;;;;;;20.25;18.25;;;;;22.02;58.24;99095.50;5074997;28;45399;-59
2022/08/25 04:42:32;;;;;;;;;18.75;18.75;;;;;22.01;58.59;99099.16;5073162;28;45780;-57
2022/08/25 04:44:58;;;;;;;;;18.75;18.75;;;;;22.00;58.77;99101.00;5074024;28;45964;-56
2022/08/25 04:47:24;;;;;;;;;20.00;20.00;;;;;21.99;58.72;99098.41;5073801;28;45449;-57
2022/08/25 04:49:50;;;;;;;;;19.75;17.50;;;;;21.99;58.83;99101.94;5074384;28;45480;-58
2022/08/25 04:52:15;;;;;;;;;20.00;19.00;;;;;21.98;58.21;99108.28;5073809;28;45354;-57
2022/08/25 04:54:42;;;;;;;;;23.00;21.25;;;;;21.97;58.53;99109.28;5073527;27;46340;-57
2022/08/25 04:57:08;;;;;;;;;21.50;19.00;;;;;21.97;58.67;99103.91;5074784;28;45349;-57
2022/08/25 04:59:33;;;;;;;;;19.50;19.50;;;;;21.94;58.70;99104.19;5073623;28;45421;-57
2022/08/25 05:02:04;;;;;;;;;18.50;17.50;;;;;21.93;59.02;99105.19;5075058;28;45465;-57
2022/08/25 05:04:30;;;;;;;;;19.00;18.50;;;;;21.90;59.05;99106.28;5073615;27;46211;-57
2022/08/25 05:06:56;;;;;;;;;21.25;19.00;;;;;21.90;59.49;99108.13;5083865;27;45520;-57
2022/08/25 05:09:22;;;;;;;;;18.75;17.75;;;;;21.89;59.08;99109.97;5073811;28;45436;-57
2022/08/25 05:11:47;;;;;;;;;19.75;19.75;;;;;21.88;59.50;99102.88;5074045;28;45504;-57
2022/08/25 05:14:16;;;;;;;;;16.25;15.50;;;;;21.89;59.62;99111.78;5073526;28;46012;-57
2022/08/25 05:16:42;;;;;;;;;21.50;20.25;;;;;21.88;59.16;99105.56;5074122;27;45456;-58
2022/08/25 05:19:08;;;;;;;;;22.50;22.50;;;;;21.86;59.77;99101.31;5073481;28;45504;-58
2022/08/25 05:21:33;;;;;;;;;25.25;22.50;;;;;21.88;59.37;99120.81;5073966;28;45366;-58
2022/08/25 05:24:00;;;;;;;;;21.25;20.00;;;;;21.87;59.56;99108.38;5072928;28;45555;-58
2022/08/25 05:26:29;;;;;;;;;14.00;14.00;;;;;21.86;59.50;99117.41;5073706;28;45499;-58
2022/08/25 05:28:55;;;;;;;;;21.75;20.50;;;;;21.84;59.92;99120.22;5072512;28;45567;-61
2022/08/25 05:31:22;;;;;;;;;23.75;20.75;;;;;21.83;59.52;99120.38;5055486;28;45402;-61
2022/08/25 05:33:48;;;;;;;;;23.00;21.50;;;;;21.84;59.77;99122.91;5054354;28;45990;-61
2022/08/25 05:36:14;;;;;;;;;21.50;21.50;;;;;21.86;59.90;99122.78;5073032;28;45528;-60
2022/08/25 05:38:40;;;;;;;;;26.00;24.50;;;;;21.86;59.81;99120.97;5071786;28;45596;-61
2022/08/25 05:41:10;;;;;;;;;15.75;14.50;;;;;21.87;59.88;99119.13;5073869;28;45430;-59
2022/08/25 05:43:39;;;;;;;;;18.25;17.25;;;;;21.87;59.94;99116.44;5072939;28;45754;-59
2022/08/25 05:46:04;;;;;;;;;20.50;20.50;;;;;21.89;59.00;99119.84;5072517;28;45433;-60
2022/08/25 05:48:30;;;;;;;;;22.00;20.50;;;;;21.91;59.03;99118.72;5071058;28;45437;-59
2022/08/25 05:50:58;;;;;;;;;24.25;24.25;;;;;21.97;59.26;99121.84;5073311;28;45503;-59
2022/08/25 05:53:26;;;;;;;;;20.00;19.00;;;;;21.99;59.21;99122.56;5072228;28;46460;-59
2022/08/25 05:55:54;;;;;;;;;20.75;20.50;;;;;22.01;58.58;99121.50;5072804;28;45536;-59
2022/08/25 05:58:20;;;;;;;;;18.00;17.00;;;;;22.04;58.80;99123.91;5052470;28;45479;-58
2022/08/25 06:00:46;;;;;;;;;22.25;20.00;;;;;22.05;58.55;99112.19;5073243;28;45607;-58
2022/08/25 06:03:12;;;;;;;;;19.25;17.75;;;;;22.09;58.27;99116.31;5072748;28;45508;-58
2022/08/25 06:05:37;;;;;;;;;19.50;19.25;;;;;22.14;58.52;99116.75;5071993;28;45444;-58
2022/08/25 06:08:03;;;;;;;;;20.50;19.00;;;;;22.17;58.17;99110.25;5071463;28;45303;-58
2022/08/25 06:10:29;;;;;;;;;18.00;18.00;;;;;22.21;58.24;99120.59;5072596;28;45683;-58
2022/08/25 06:12:54;;;;;;;;;19.00;18.25;;;;;22.26;57.82;99120.22;5072116;28;46149;-58
2022/08/25 06:15:23;;;;;;;;;21.25;20.00;;;;;22.32;58.16;99122.31;5073034;28;45399;-58
2022/08/25 06:17:49;;;;;;;;;23.25;22.00;;;;;22.37;58.33;99117.41;5071713;28;45359;-58
2022/08/25 06:20:18;;;;;;;;;19.75;19.00;;;;;22.42;57.94;99120.53;5076059;28;45596;-58
2022/08/25 06:22:43;;;;;;;;;22.75;21.25;;;;;22.46;58.19;99119.25;5076080;28;45630;-58
2022/08/25 06:25:11;;;;;;;;;23.25;21.00;;;;;22.51;57.68;99133.16;5076149;28;45469;-58
2022/08/25 06:27:38;;;;;;;;;18.50;17.75;;;;;22.54;57.78;99134.72;5074463;28;45440;-58
2022/08/25 06:30:05;;;;;;;;;18.50;18.00;;;;;22.57;57.53;99134.44;5076399;28;45475;-58
2022/08/25 06:32:32;;;;;;;;;20.00;19.50;;;;;22.59;57.62;99133.31;5075735;28;45411;-59
2022/08/25 06:34:58;;;;;;;;;20.25;20.00;;;;;22.62;57.95;99137.59;5076837;28;45381;-59
2022/08/25 06:37:24;;;;;;;;;19.50;19.25;;;;;22.67;57.40;99137.16;5075560;28;45211;-58
2022/08/25 06:39:50;;;;;;;;;20.50;20.00;;;;;22.70;57.57;99135.03;5057943;28;45457;-59
2022/08/25 06:42:15;;;;;;;;;17.50;17.50;;;;;22.75;57.08;99131.94;5075489;28;46441;-62
2022/08/25 06:44:40;;;;;;;;;19.50;18.50;;;;;22.78;56.89;99140.63;5075144;28;45454;-57
2022/08/25 06:47:06;;;;;;;;;16.25;16.25;;;;;22.83;57.17;99134.81;5073997;28;45555;-58
2022/08/25 06:49:31;;;;;;;;;20.00;17.50;;;;;22.86;56.35;99131.84;5074832;28;45595;-58
2022/08/25 06:51:57;;;;;;;;;21.00;21.00;;;;;22.91;57.04;99125.09;5075064;28;45615;-57
2022/08/25 06:54:23;;;;;;;;;20.75;18.50;;;;;22.94;56.52;99124.81;5075127;28;45412;-57
2022/08/25 06:56:48;;;;;;;;;23.50;22.75;;;;;22.98;56.60;99120.81;5075916;28;45349;-57
2022/08/25 06:59:14;;;;;;;;;19.50;18.25;;;;;23.03;56.83;99127.63;5057529;28;45532;-58
2022/08/25 07:01:39;;;;;;;;;18.00;18.00;;;;;23.07;56.80;99113.78;5075074;28;46194;-68
2022/08/25 07:04:05;;;;;;;;;22.50;19.50;;;;;23.13;56.42;99123.09;5074628;28;45804;-69
2022/08/25 07:06:35;;;;;;;;;16.50;16.50;;;;;23.18;56.42;99127.06;5073225;28;45517;-75
2022/08/25 07:09:03;;;;;;;;;21.25;21.25;;;;;23.25;56.25;99124.69;5074914;28;45373;-68
2022/08/25 07:11:32;;;;;;;;;17.75;17.50;;;;;23.30;55.63;99122.41;5075144;28;46591;-69
2022/08/25 07:13:59;;;;;;;;;20.75;18.00;;;;;23.36;55.19;99121.84;5074751;28;45439;-69
2022/08/25 07:16:25;;;;;;;;;17.25;16.00;;;;;23.40;55.21;99122.41;5076033;28;45506;-69
2022/08/25 07:18:55;;;;;;;;;18.25;18.25;;;;;23.46;54.97;99109.22;5075608;28;45282;-68
2022/08/25 07:21:21;;;;;;;;;17.75;17.75;;;;;23.52;55.14;99106.00;5074431;28;46591;-64
2022/08/25 07:23:46;;;;;;;;;24.50;21.75;;;;;23.57;55.38;99098.34;5066769;27;45607;-71
2022/08/25 07:26:14;;;;;;;;;17.75;17.75;;;;;23.64;54.90;99102.13;5057377;28;45551;-71
2022/08/25 07:28:40;;;;;;;;;21.00;19.00;;;;;23.70;54.65;99100.72;5074227;28;45539;-72
2022/08/25 07:31:06;;;;;;;;;18.00;18.00;;;;;23.73;55.20;99097.75;5078301;27;46317;-68
2022/08/25 07:33:31;;;;;;;;;20.00;20.00;;;;;23.78;55.05;99092.78;5074608;28;45569;-68
2022/08/25 07:35:57;;;;;;;;;18.75;18.75;;;;;23.84;54.92;99088.63;5075721;28;45470;-74
2022/08/25 07:38:22;;;;;;;;;20.25;19.25;;;;;23.90;54.95;99091.59;5073395;28;45543;-68
2022/08/25 07:40:53;;;;;;;;;18.50;18.50;;;;;23.95;55.12;99093.88;5073938;28;46246;-75
2022/08/25 07:43:22;;;;;;;;;19.75;18.50;;;;;24.03;54.94;99083.19;5074304;28;45455;-71
2022/08/25 07:45:48;;;;;;;;;20.00;18.25;;;;;24.09;54.55;99079.06;5047606;28;45370;-71
2022/08/25 07:48:14;;;;;;;;;21.75;20.75;;;;;24.15;54.68;99084.69;5073374;27;45447;-70
2022/08/25 07:50:42;;;;;;;;;20.00;18.75;;;;;24.21;54.19;99089.50;5074722;28;46231;-71
2022/08/25 07:53:09;;;;;;;;;15.00;15.00;;;;;24.30;54.06;99090.47;5074278;28;45382;-70
2022/08/25 07:55:37;;;;;;;;;20.75;19.75;;;;;24.34;53.94;99086.50;5074959;28;45467;-70
2022/08/25 07:58:05;;;;;;;;;20.50;19.00;;;;;24.41;54.13;99089.44;5073926;28;45426;-70
2022/08/25 08:00:33;;;;;;;;;22.50;21.00;;;;;24.47;54.13;99089.69;5074856;28;45479;-70
2022/08/25 08:03:06;;;;;;;;;18.50;18.00;;;;;24.55;54.19;99087.09;5073577;28;45417;-63
2022/08/25 08:05:32;;;;;;;;;22.75;19.50;;;;;24.61;53.47;99091.03;5075205;28;45631;-70
2022/08/25 08:07:59;;;;;;;;;17.25;17.25;;;;;24.68;53.50;99090.28;5074180;28;45581;-70
2022/08/25 08:10:25;;;;;;;;;18.25;17.25;;;;;24.75;53.61;99095.06;5073918;28;45447;-70
2022/08/25 08:12:52;;;;;;;;;21.75;18.75;;;;;24.82;53.48;99093.44;5073967;28;45475;-71
2022/08/25 08:15:18;;;;;;;;;19.25;17.25;;;;;24.87;53.38;99097.38;5074499;28;45496;-70
2022/08/25 08:17:44;;;;;;;;;20.25;20.00;;;;;24.94;53.04;99089.56;5073942;28;45531;-71
2022/08/25 08:20:10;;;;;;;;;25.25;22.50;;;;;25.01;52.83;99096.03;5074514;28;46459;-71
2022/08/25 08:22:38;;;;;;;;;17.50;16.00;;;;;25.08;52.79;99090.88;5073550;28;45527;-71
2022/08/25 08:25:05;;;;;;;;;17.00;17.00;;;;;25.14;52.75;99092.94;5074771;28;45506;-71
2022/08/25 08:27:31;;;;;;;;;21.25;20.00;;;;;25.20;52.36;99087.78;5073524;28;45403;-71
2022/08/25 08:29:56;;;;;;;;;21.50;21.50;;;;;25.27;52.17;99083.47;5048313;28;45515;-70
2022/08/25 08:32:22;;;;;;;;;21.00;18.50;;;;;25.35;51.43;99090.78;5073877;28;45384;-71
2022/08/25 08:34:47;;;;;;;;;21.00;19.75;;;;;25.41;51.43;99079.38;5074781;27;45595;-72
2022/08/25 08:37:13;;;;;;;;;17.00;17.00;;;;;25.48;51.34;99071.47;5073902;28;45525;-70
2022/08/25 08:39:39;;;;;;;;;17.75;17.75;;;;;25.54;51.16;99070.84;5074296;28;46467;-71
2022/08/25 08:42:23;;;;;;;;;18.75;18.75;;;;;25.60;50.44;99068.38;5072996;28;45799;-71
2022/08/25 08:44:55;;;;;;;;;18.75;18.50;;;;;25.67;50.32;99064.06;5072601;28;45546;-71
2022/08/25 08:47:41;;;;;;;;;22.50;22.50;;;;;25.75;50.02;99063.28;5073652;28;45606;-70
2022/08/25 08:50:28;;;;;;;;;19.00;18.00;;;;;25.81;50.25;99065.31;5074513;28;45423;-71
2022/08/25 08:52:59;;;;;;;;;19.00;18.25;;;;;25.88;49.81;99061.00;5073717;28;45495;-68
2022/08/25 08:55:55;;;;;;;;;19.75;19.25;;;;;25.95;49.83;99059.34;5073958;28;45377;-70
2022/08/25 08:58:27;;;;;;;;;17.75;17.50;;;;;26.00;49.46;99051.59;5070570;28;45556;-70
2022/08/25 09:00:57;;;;;;;;;21.00;20.50;;;;;26.05;49.66;99056.53;5073815;28;46563;-70
2022/08/25 09:03:51;;;;;;;;;22.75;21.00;;;;;26.13;49.22;99053.03;5072567;28;45790;-70
2022/08/25 09:06:24;;;;;;;;;24.25;20.50;;;;;26.21;49.01;99053.91;5073527;28;45436;-70
2022/08/25 09:08:54;;;;;;;;;20.50;20.25;;;;;26.29;48.75;99050.44;5073208;28;45496;-69
2022/08/25 09:11:44;;;;;;;;;41.00;34.33;;;;;26.37;48.43;99048.59;5073701;28;46213;-70
2022/08/25 09:14:18;;;;;;;;;19.25;18.50;;;;;26.46;48.48;99049.47;5072877;28;45400;-70
2022/08/25 09:17:12;;;;;;;;;20.50;17.50;;;;;26.54;48.48;99041.38;5073714;28;45325;-69
2022/08/25 09:19:59;;;;;;;;;18.50;18.50;;;;;26.61;48.01;99041.56;5073271;28;45375;-70
2022/08/25 09:22:33;;;;;;;;;15.25;15.25;;;;;26.67;47.45;99040.88;5068572;28;45543;-70
2022/08/25 09:25:20;;;;;;;;;18.25;17.25;;;;;26.75;47.89;99039.06;5072491;28;45441;-70
2022/08/25 09:28:04;;;;;;;;;18.50;17.75;;;;;26.83;47.49;99040.06;5073572;28;45404;-70
2022/08/25 09:30:47;;;;;;;;;20.75;19.75;;;;;26.86;47.82;99035.19;5073207;28;45344;-58
2022/08/25 09:33:19;;;;;;;;;20.00;20.00;;;;;26.92;47.32;99028.25;5072287;28;45463;-57
2022/08/25 09:35:45;;;;;;;;;23.75;22.25;;;;;26.95;47.47;99023.41;5073295;28;45335;-58
2022/08/25 09:38:12;;;;;;;;;22.00;20.25;;;;;27.02;47.63;99016.28;5072499;28;45428;-58
2022/08/25 09:40:44;;;;;;;;;20.25;18.00;;;;;27.09;47.33;99014.63;5073475;28;45456;-58
2022/08/25 09:43:18;;;;;;;;;20.50;19.00;;;;;27.18;46.55;99003.75;5072748;28;45996;-58
2022/08/25 09:45:54;;;;;;;;;21.50;21.00;;;;;27.22;46.75;99000.56;5073081;28;45553;-58
2022/08/25 09:48:46;;;;;;;;;19.25;19.25;;;;;27.28;46.63;99001.75;5072272;28;45377;-57
2022/08/25 09:51:34;;;;;;;;;18.75;17.75;;;;;27.36;46.50;98994.44;5044320;28;45537;-56
2022/08/25 09:54:04;;;;;;;;;17.75;17.00;;;;;27.43;46.33;98997.31;5071317;28;46300;-56
2022/08/25 09:56:32;;;;;;;;;19.00;17.75;;;;;27.49;46.54;99001.19;5075370;28;45361;-56
2022/08/25 09:59:22;;;;;;;;;22.00;20.50;;;;;27.56;46.00;98991.38;5076018;28;45531;-56
2022/08/25 10:01:55;;;;;;;;;18.50;18.00;;;;;27.64;45.29;98988.69;5076789;28;45601;-56
2022/08/25 10:04:33;;;;;;;;;17.00;17.00;;;;;27.72;45.77;98991.38;5074983;28;46476;-56
2022/08/25 10:07:01;;;;;;;;;20.50;19.25;;;;;27.77;45.02;98989.84;5075620;28;45274;-57
2022/08/25 10:09:28;;;;;;;;;22.00;21.00;;;;;27.84;44.80;98981.84;5074662;28;45407;-55
2022/08/25 10:11:54;;;;;;;;;18.25;18.25;;;;;27.90;44.54;98977.59;5076221;28;45635;-56
2022/08/25 10:14:34;;;;;;;;;15.50;15.50;;;;;27.96;44.31;98980.47;5075099;28;45619;-57
2022/08/25 10:17:26;;;;;;;;;17.75;17.00;;;;;28.02;44.09;98968.88;5073451;28;45302;-56
2022/08/25 10:19:53;;;;;;;;;22.25;21.75;;;;;28.07;44.24;98966.50;5074895;28;45511;-55
2022/08/25 10:22:20;;;;;;;;;19.00;18.00;;;;;28.14;44.15;98958.53;5073873;28;45474;-56
2022/08/25 10:24:47;;;;;;;;;20.50;19.00;;;;;28.22;44.00;98949.50;5074065;28;45485;-57
2022/08/25 10:27:13;;;;;;;;;18.25;17.50;;;;;28.29;44.36;98945.94;5074887;28;45483;-57
2022/08/25 10:29:57;;;;;;;;;18.25;17.25;;;;;28.38;43.33;98941.28;5073793;28;45620;-57
2022/08/25 10:32:33;;;;;;;;;19.50;18.25;;;;;28.42;43.45;98935.34;5055990;28;45637;-58
2022/08/25 10:35:08;;;;;;;;;20.25;19.00;;;;;28.45;43.21;98937.69;5074321;28;45531;-55
2022/08/25 10:38:02;;;;;;;;;20.50;19.50;;;;;28.49;42.97;98933.56;5073419;28;45467;-56
2022/08/25 10:40:38;;;;;;;;;17.00;17.00;;;;;28.52;42.98;98929.66;5072801;28;45449;-56
2022/08/25 10:43:25;;;;;;;;;15.50;15.50;;;;;28.59;42.75;98917.06;5074144;28;45478;-55
2022/08/25 10:46:03;;;;;;;;;21.25;21.25;;;;;28.66;42.66;98922.59;5074362;28;45875;-56
2022/08/25 10:48:49;;;;;;;;;20.50;20.50;;;;;28.71;43.07;98915.63;5054939;28;45598;-56
2022/08/25 10:51:21;;;;;;;;;23.50;19.00;;;;;28.78;42.64;98916.59;5073562;28;45488;-54
2022/08/25 10:54:10;;;;;;;;;18.75;17.75;;;;;28.83;43.12;98921.47;5073977;28;45373;-54
2022/08/25 10:56:55;;;;;;;;;17.50;17.25;;;;;28.89;42.45;98909.91;5074474;28;46079;-56
2022/08/25 10:59:30;;;;;;;;;20.25;18.75;;;;;28.98;42.22;98913.41;5074116;28;45416;-58
2022/08/25 11:02:23;;;;;;;;;21.00;19.25;;;;;29.05;42.49;98908.91;5074958;28;45575;-58
2022/08/25 11:04:48;;;;;;;;;23.25;20.75;;;;;29.10;42.57;98901.06;5073350;28;45566;-56
2022/08/25 11:07:43;;;;;;;;;20.50;18.00;;;;;29.14;42.74;98895.06;5074009;28;46513;-57
2022/08/25 11:10:37;;;;;;;;;16.00;15.50;;;;;29.20;41.88;98893.47;5071900;28;45440;-57
2022/08/25 11:13:12;;;;;;;;;21.25;18.25;;;;;29.27;42.54;98893.59;5074279;28;45436;-57
2022/08/25 11:15:55;;;;;;;;;15.50;15.50;;;;;29.37;41.24;98880.56;5073902;28;45504;-57
2022/08/25 11:18:21;;;;;;;;;16.50;15.00;;;;;29.45;40.81;98880.50;5073183;28;45667;-56
2022/08/25 11:20:52;;;;;;;;;12.60;11.80;;;;;29.49;40.13;98890.78;5074114;28;45471;-57
2022/08/25 11:23:34;;;;;;;;;11.75;11.75;;;;;29.55;39.97;98870.19;5073121;28;45610;-58
2022/08/25 11:26:07;;;;;;;;;11.25;9.00;;;;;29.62;38.96;98868.41;5075602;28;45432;-57